Terminal Aerodrome Forecast
Issued by NWS

Home | Current Version | Previous Version | Text Only | Print | Product List | Glossary On
Versions: 1 2 3 4 5 6 7 8 9 10 11 12 13 14 15 16 17 18 19 20 21 22 23 24 25 26 27 28 29 30 31 32 33 34 35 36
000
FTUS44 KHGX 292129 AAA
TAFCXO
TAF AMD
KCXO 292129Z 2921/3018 21012G21KT P6SM SKC
     FM300200 18009KT P6SM SCT250
     FM300600 19004KT P6SM SCT007 BKN015
     FM300900 21003KT 3SM BR OVC012
      TEMPO 3010/3013 1SM BR OVC008
     FM301500 19004KT 5SM BR BKN015=

USA.gov is the U.S. government's official web portal to all federal, state and local government web resources and services.